Stewartsville, Missouri
Current Conditions -  °F | °C
As of 12:03 PM on Friday 24 Oct 2014 (Local Time) from KSTJ Reporting Station
Scattered Clouds Scattered Clouds  
Wind Chill: 68°   Ceiling: Unl
Heat Index: 68°   Visibility: 10mi
Dew Point: 61°   Wind: 12mph
Humidity: 78%   Direction: 220°SW
Pressure: 30.01"   Gusts: NA
Location:  39.75°N, 94.5°W
Report Text: KSTJ 241703Z 22010KT 10SM SCT011 20/16 A3001 RMK AO2 T02000161
Loading
Personal Weather Stations






























Interactive Weather Map New forecast layout! Learn more

10-Day Weather Forecast

Advertisements
Track Severe Weather on mobile